Austin, TX (78717)

3:48 PM CDT on June 30, 2015 (GMT -0500)
Cat Hollow | | Change Station
CLOSE
Current Station
Personal Weather Station
Location: Round Rock, TX
Elevation: 909 ft
Nearby Weather Stations

Elev 909 ft 30.50 °N, 97.74 °W | Updated 5 minutes ago

Partly Cloudy
Partly Cloudy
91.0 °F
Feels Like 101 °F
N
0.0
Wind Variable Wind from ESE

Today
High -- | Low -- °F
--% Chance of Precip.
Yesterday
High -- | Low -- °F
Precip. -- in
6:31 AM 8:37 PM
Waxing Gibbous, 98% visible
Pressure 29.98 in
Visibility 10.0 miles
Clouds Few 7000 ft
Heat Index 101 °F
Dew Point 74 °F
Humidity 58%
Rainfall 0.00 in
Snow Depth Not available.
UV 10 out of 12
Pollen 1.60 out of 12
Air Quality Not available.
Flu Activity Local Activity
METAR KEDC 302035Z AUTO 15006KT 10SM FEW070 33/23 A2998 RMK AO2

More Conditions Fewer Conditions

Pressure 29.98 in
Visibility 10.0 miles
Clouds Few 7000 ft
Heat Index 101 °F
Dew Point 74 °F
Humidity 58%
Rainfall 0.00 in
Snow Depth Not available.
UV 10 out of 12
Pollen 1.60 out of 12
Air Quality Not available.
Flu Activity Local Activity
METAR KEDC 302035Z AUTO 15006KT 10SM FEW070 33/23 A2998 RMK AO2

More Conditions Fewer Conditions

Nowcast | as of 2:52 PM CDT on June 30, 2015

Scattered showers and thunderstorms will continue to develop and spread north across south central Texas this afternoon. Rainfall amounts of one half to three quarters of an inch are expected with isolated amounts to two inches possible. Wind gusts to 50 mph and cloud to ground lightning are possible in addition to the brief heavy downpours.

×

10-Day Weather Forecast

×

Almanac

Astronomy

Jun. 30, 2015 Rise Set
Actual Time
Civil Twilight
Nautical Twilight
Astronomical Twilight
Moon
Length of Visible Light
Length of Day
Tomorrow will be .
, % of the Moon is Illuminated

Today's Extremes

State Highs State Lows

Community

WunderPhotos

Upload Photos

1,834,069 photos uploaded!

WunderBlogs® & News

Nearby

Air Quality

  Air Quality AQ Index Pollutant
Not available.

Snow Depth

Station Depth Elevation

Earthquake Activity

City Distance Mag. Time & Date
Minimum magnitude displayed is 2.5.

Coastal Water Temperatures

Place Temperature

Stations

Nearby Weather Stations

Station Location Temp. Windchill Dew Point Humidity Wind Precip. Elev Updated Type